Latest Weather Observations for Mount Lofty

IDS60801

Issued at 10:01 am CST Thursday 2 July 2015 (issued every 30 minutes, with the page automatically refreshed every 10 minutes)

About weather observations | Map of weather stations | Latest weather observations for SA | Other Formats
Station Details ID: 023842 Name: MOUNT LOFTY Lat: -34.98 Lon: 138.71 Height: 685.0 m
Data from the previous 72 hours. | See also: Recent months at Mount Lofty
Date/Time
CST
Temp
°C
App
Temp
°C
Dew
Point
Rel
Hum
%
Delta-T
°C
Wind Press
QNH
hPa
Press
MSL
hPa
Rain
since 9 am
mm
Dir
 
Spd
km/h
Gust
km/h
Spd
kts
Gust
kts
02/10:00am 7.6 5.6 7.3 98 0.1 SSW 7 17 4 9 - - 0.0
02/09:30am 8.2 6.4 7.9 98 0.1 S 7 15 4 8 - - 0.0
02/09:00am 8.1 6.3 7.8 98 0.1 SSW 7 17 4 9 - - 0.4
02/08:30am 7.8 6.1 7.5 98 0.1 WSW 6 11 3 6 - - 0.4
02/08:00am 7.7 5.8 7.4 98 0.1 W 7 19 4 10 - - 0.2
02/07:30am 7.6 5.3 7.3 98 0.1 W 9 19 5 10 - - 0.2
02/07:00am 7.2 5.2 6.9 98 0.1 WNW 7 13 4 7 - - 0.2
02/06:30am 7.0 4.1 6.7 98 0.1 WNW 11 20 6 11 - - 0.2
02/06:00am 6.4 3.8 6.1 98 0.1 WNW 9 15 5 8 - - 0.2
02/05:30am 6.1 3.1 5.8 98 0.1 WNW 11 17 6 9 - - 0.2
02/05:00am 5.9 2.8 5.6 98 0.1 WNW 11 17 6 9 - - 0.0
02/04:30am 5.7 3.0 5.4 98 0.1 WNW 9 19 5 10 - - 0.0
02/04:00am 5.7 2.2 5.4 98 0.1 WNW 13 20 7 11 - - 0.0
02/03:30am 5.7 2.6 5.4 98 0.1 WNW 11 20 6 11 - - 0.0
02/03:00am 5.9 2.8 5.6 98 0.1 WNW 11 17 6 9 - - 0.0
02/02:30am 5.9 2.4 5.6 98 0.1 WNW 13 20 7 11 - - 0.0
02/02:00am 5.9 3.2 5.6 98 0.1 WNW 9 17 5 9 - - 0.0
02/01:30am 5.9 2.8 5.5 97 0.2 WNW 11 17 6 9 - - 0.0
02/01:00am 5.9 2.4 5.5 97 0.2 WNW 13 22 7 12 - - 0.0
02/12:30am 5.9 2.0 5.2 95 0.3 WNW 15 26 8 14 - - 0.0
02/12:00am 5.9 2.0 5.3 96 0.3 WNW 15 20 8 11 - - 0.0
 
Date/Time
CST
Temp
°C
App
Temp
°C
Dew
Point
Rel
Hum
%
Delta-T
°C
Wind Press
QNH
hPa
Press
MSL
hPa
Rain
since 9 am
mm
Dir
 
Spd
km/h
Gust
km/h
Spd
kts
Gust
kts
01/11:30pm 5.9 2.0 5.5 97 0.2 WNW 15 22 8 12 - - 0.0
01/11:00pm 5.8 1.9 5.2 96 0.3 WNW 15 22 8 12 - - 0.0
01/10:30pm 5.8 2.2 5.1 95 0.3 WNW 13 24 7 13 - - 0.0
01/10:00pm 5.8 2.5 4.4 91 0.6 WNW 11 19 6 10 - - 0.0
01/09:30pm 5.7 1.8 3.5 86 1.0 WNW 13 24 7 13 - - 0.0
01/09:00pm 5.8 2.3 3.6 86 1.0 WNW 11 19 6 10 - - 0.0
01/08:30pm 5.7 2.2 3.7 87 0.9 WNW 11 17 6 9 - - 0.0
01/08:00pm 5.6 2.0 2.9 83 1.2 WNW 11 17 6 9 - - 0.0
01/07:30pm 5.5 1.7 1.8 77 1.5 WNW 11 17 6 9 - - 0.0
01/07:00pm 5.7 1.9 1.6 75 1.7 WNW 11 17 6 9 - - 0.0
01/06:30pm 5.8 2.0 1.5 74 1.8 WNW 11 17 6 9 - - 0.0
01/06:00pm 5.5 2.0 1.4 75 1.7 WNW 9 15 5 8 - - 0.0
01/05:30pm 5.4 1.9 1.3 75 1.7 WNW 9 17 5 9 - - 0.0
01/05:00pm 5.6 2.2 1.7 76 1.6 WNW 9 13 5 7 - - 0.0
01/04:30pm 6.1 2.7 1.8 74 1.8 WNW 9 15 5 8 - - 0.0
01/04:00pm 6.6 3.2 1.7 71 2.1 WNW 9 13 5 7 - - 0.0
01/03:30pm 7.0 3.3 2.3 72 2.0 WNW 11 19 6 10 - - 0.0
01/03:00pm 7.3 3.6 2.2 70 2.2 WNW 11 20 6 11 - - 0.0
01/02:30pm 7.2 3.9 2.5 72 2.0 WNW 9 19 5 10 - - 0.0
01/02:00pm 7.7 4.0 2.4 69 2.3 WNW 11 19 6 10 - - 0.0
01/01:30pm 7.9 3.7 1.7 65 2.7 NW 13 19 7 10 - - 0.0
01/01:00pm 7.9 4.1 2.0 66 2.5 WNW 11 19 6 10 - - 0.0
01/12:30pm 7.8 3.7 2.3 68 2.4 NW 13 20 7 11 - - 0.0
01/12:00pm 8.0 4.8 2.9 70 2.2 WNW 9 17 5 9 - - 0.0
01/11:30am 7.6 4.1 3.3 74 1.9 NW 11 19 6 10 - - 0.0
01/11:00am 7.1 3.3 2.0 70 2.2 WNW 11 20 6 11 - - 0.0
01/10:30am 7.0 3.3 2.5 73 1.9 NW 11 17 6 9 - - 0.0
01/10:00am 6.9 3.7 3.3 78 1.6 NW 9 15 5 8 - - 0.0
01/09:30am 6.2 3.1 3.7 84 1.1 NW 9 13 5 7 - - 0.0
01/09:00am 5.9 3.5 5.2 95 0.3 NW 7 13 4 7 - - 0.0
01/08:30am 5.6 2.8 5.2 97 0.2 NW 9 15 5 8 - - 0.0
01/08:00am 5.6 3.1 5.0 96 0.3 NW 7 11 4 6 - - 0.0
01/07:30am 5.5 3.0 4.8 95 0.3 NW 7 11 4 6 - - 0.0
01/07:00am 5.5 3.0 4.9 96 0.3 NW 7 11 4 6 - - 0.0
01/06:30am 5.5 3.3 5.1 97 0.2 WNW 6 9 3 5 - - 0.0
01/06:00am 5.2 2.9 4.8 97 0.2 WNW 6 9 3 5 - - 0.0
01/05:30am 5.1 2.8 4.7 97 0.2 WNW 6 9 3 5 - - 0.0
01/05:00am 5.0 2.7 4.6 97 0.2 WNW 6 7 3 4 - - 0.0
01/04:30am 5.1 2.8 4.7 97 0.2 WNW 6 9 3 5 - - 0.0
01/04:00am 5.5 3.3 5.1 97 0.2 WNW 6 11 3 6 - - 0.0
01/03:30am 5.0 3.0 4.4 96 0.3 WNW 4 6 2 3 - - 0.0
01/03:00am 5.0 3.0 4.4 96 0.3 WNW 4 6 2 3 - - 0.0
01/02:30am 5.1 3.1 4.5 96 0.3 WNW 4 7 2 4 - - 0.0
01/02:00am 5.0 3.0 4.3 95 0.3 WNW 4 7 2 4 - - 0.0
01/01:30am 5.0 2.8 3.5 90 0.7 W 4 6 2 3 - - 0.0
01/01:00am 5.4 3.0 1.9 78 1.5 W 4 6 2 3 - - 0.0
01/12:30am 5.1 2.6 1.8 79 1.4 W 4 4 2 2 - - 0.0
01/12:00am 5.4 2.7 2.9 84 1.1 WSW 6 7 3 4 - - 0.0
 
Date/Time
CST
Temp
°C
App
Temp
°C
Dew
Point
Rel
Hum
%
Delta-T
°C
Wind Press
QNH
hPa
Press
MSL
hPa
Rain
since 9 am
mm
Dir
 
Spd
km/h
Gust
km/h
Spd
kts
Gust
kts
30/11:30pm 5.1 2.3 2.1 81 1.3 WSW 6 7 3 4 - - 0.0
30/11:00pm 5.4 3.0 2.4 81 1.3 WSW 4 6 2 3 - - 0.0
30/10:30pm 5.9 4.4 2.9 81 1.3 CALM 0 0 0 0 - - 0.0
30/10:00pm 6.3 4.0 2.8 78 1.5 WSW 4 7 2 4 - - 0.0
30/09:30pm 6.3 3.6 2.6 77 1.6 W 6 7 3 4 - - 0.0
30/09:00pm 6.4 4.0 2.3 75 1.8 W 4 6 2 3 - - 0.0
30/08:30pm 6.3 4.0 2.9 79 1.5 WSW 4 9 2 5 - - 0.0
30/08:00pm 6.4 4.4 4.4 87 0.9 WSW 4 7 2 4 - - 0.0
30/07:30pm 6.8 5.0 3.6 80 1.4 WSW 2 4 1 2 - - 0.0
30/07:00pm 6.7 4.5 3.5 80 1.4 SW 4 6 2 3 - - 0.0
30/06:30pm 6.6 4.2 4.4 86 1.0 SSW 6 9 3 5 - - 0.0
30/06:00pm 6.5 4.6 4.8 89 0.8 SSW 4 9 2 5 - - 0.0
30/05:30pm 6.5 5.0 4.8 89 0.8 SSW 2 4 1 2 - - 0.0
30/05:00pm 6.6 5.1 5.1 90 0.7 WSW 2 6 1 3 - - 0.0
30/04:30pm 6.8 5.0 5.3 90 0.7 SW 4 6 2 3 - - 0.0
30/04:00pm 7.1 5.3 5.3 88 0.8 WSW 4 6 2 3 - - 0.0
30/03:30pm 7.2 5.7 5.2 87 0.9 WSW 2 6 1 3 - - 0.0
30/03:00pm 7.1 5.3 5.3 88 0.8 W 4 7 2 4 - - 0.0
30/02:30pm 7.1 5.2 5.1 87 0.9 W 4 9 2 5 - - 0.0
30/02:00pm 7.1 4.7 4.2 82 1.3 W 6 7 3 4 - - 0.0
30/01:30pm 7.5 5.0 3.9 78 1.6 WSW 6 7 3 4 - - 0.0
30/01:00pm 7.3 4.8 3.9 79 1.5 W 6 9 3 5 - - 0.0
30/12:30pm 7.3 4.8 3.5 77 1.7 WNW 6 11 3 6 - - 0.0
30/12:00pm 7.4 4.9 3.6 77 1.7 W 6 9 3 5 - - 0.0
30/11:30am 7.5 5.0 3.9 78 1.6 W 6 9 3 5 - - 0.0
30/11:00am 7.1 4.6 3.9 80 1.4 W 6 9 3 5 - - 0.0
30/10:30am 6.8 4.7 3.9 82 1.3 W 4 7 2 4 - - 0.0
30/10:00am 6.3 3.6 2.8 78 1.5 W 6 9 3 5 - - 0.0
30/09:30am 6.0 3.4 1.2 71 2.0 WNW 4 7 2 4 - - 0.0
30/09:00am 5.8 4.0 1.2 72 1.9 CALM 0 2 0 1 - - 0.0
30/08:30am 5.9 4.1 1.4 73 1.9 CALM 0 0 0 0 - - 0.0
30/08:00am 5.1 3.3 0.9 74 1.7 CALM 0 0 0 0 - - 0.0
30/07:30am 5.1 2.4 0.5 72 1.9 WNW 4 6 2 3 - - 0.0
30/07:00am 5.3 3.0 0.3 70 2.0 WNW 2 2 1 1 - - 0.0
30/06:30am 5.4 2.7 0.4 70 2.0 NW 4 4 2 2 - - 0.0
30/06:00am 5.5 2.8 0.3 69 2.1 WNW 4 6 2 3 - - 0.0
30/05:30am 5.4 3.5 0.4 70 2.0 CALM 0 2 0 1 - - 0.0
30/05:00am 5.3 2.6 0.3 70 2.0 WNW 4 6 2 3 - - 0.0
30/04:30am 5.4 2.7 0.6 71 1.9 WNW 4 6 2 3 - - 0.0
30/04:00am 5.5 3.7 1.4 75 1.7 CALM 0 0 0 0 - - 0.0
30/03:30am 5.6 3.8 1.2 73 1.8 CALM 0 0 0 0 - - 0.0
30/03:00am 5.8 3.6 1.3 73 1.9 WSW 2 4 1 2 - - 0.0
30/02:30am 6.0 3.8 1.0 70 2.1 SW 2 4 1 2 - - 0.0
30/02:00am 5.9 3.7 1.2 72 1.9 SW 2 4 1 2 - - 0.0
30/01:30am 6.0 4.2 1.0 70 2.1 CALM 0 0 0 0 - - 0.0
30/01:00am 5.9 4.1 1.2 72 1.9 CALM 0 0 0 0 - - 0.0
30/12:30am 6.1 4.3 1.2 71 2.0 CALM 0 0 0 0 - - 0.0
30/12:00am 6.2 4.4 1.1 70 2.1 CALM 0 0 0 0 - - 0.0
 
Date/Time
CST
Temp
°C
App
Temp
°C
Dew
Point
Rel
Hum
%
Delta-T
°C
Wind Press
QNH
hPa
Press
MSL
hPa
Rain
since 9 am
mm
Dir
 
Spd
km/h
Gust
km/h
Spd
kts
Gust
kts
29/11:30pm 6.1 4.3 1.2 71 2.0 CALM 0 0 0 0 - - 0.0
29/11:00pm 6.0 4.2 1.5 73 1.9 CALM 0 0 0 0 - - 0.0
29/10:30pm 6.0 4.2 1.3 72 2.0 CALM 0 0 0 0 - - 0.0
29/10:00pm 5.9 4.2 1.8 75 1.7 CALM 0 0 0 0 - - 0.0
29/09:30pm 6.2 4.4 1.5 72 2.0 CALM 0 0 0 0 - - 0.0
29/09:00pm 6.1 4.0 2.0 75 1.7 ENE 2 6 1 3 - - 0.0
29/08:30pm 6.0 3.5 1.7 74 1.8 E 4 9 2 5 - - 0.0
29/08:00pm 5.8 4.1 2.1 77 1.6 CALM 0 0 0 0 - - 0.0
29/07:30pm 5.9 3.8 2.0 76 1.6 ESE 2 4 1 2 - - 0.0
29/07:00pm 6.0 3.9 1.9 75 1.7 ESE 2 6 1 3 - - 0.0
29/06:30pm 5.9 4.3 2.5 79 1.5 CALM 0 0 0 0 - - 0.0
29/06:00pm 6.1 4.0 2.0 75 1.7 ENE 2 4 1 2 - - 0.0
29/05:30pm 6.4 4.4 2.3 75 1.8 ESE 2 4 1 2 - - 0.0
29/05:00pm 6.6 4.6 2.3 74 1.8 SE 2 6 1 3 - - 0.0
29/04:30pm 6.9 5.0 2.8 75 1.8 ESE 2 6 1 3 - - 0.0
29/04:00pm 7.2 5.6 2.7 73 2.0 CALM 0 0 0 0 - - 0.0
29/03:30pm 7.4 5.0 2.1 69 2.3 SE 4 7 2 4 - - 0.0
29/03:00pm 7.7 5.4 2.8 71 2.1 ESE 4 7 2 4 - - 0.0
29/02:30pm 8.0 6.0 2.3 67 2.5 SE 2 6 1 3 - - 0.0
29/02:00pm 8.0 5.2 2.3 67 2.5 ESE 6 11 3 6 - - 0.0
29/01:30pm 8.4 6.4 2.4 66 2.6 E 2 6 1 3 - - 0.0
29/01:00pm 7.9 6.0 2.8 70 2.2 ENE 2 6 1 3 - - 0.0
29/12:30pm 7.9 6.0 2.6 69 2.3 ENE 2 6 1 3 - - 0.0
29/12:00pm 7.8 5.8 2.5 69 2.3 ENE 2 6 1 3 - - 0.0
29/11:30am 7.9 5.5 2.2 67 2.5 E 4 7 2 4 - - 0.0
29/11:00am 8.0 5.7 2.7 69 2.3 E 4 7 2 4 - - 0.0
29/10:30am 7.9 6.2 3.8 75 1.8 ESE 2 6 1 3 - - 0.0

Other Formats:

Comma delimited format used in spreadsheet applications
http://www.bom.gov.au/fwo/IDS60801/IDS60801.95678.axf

JavaScript Object Notation format (JSON) in row-major order
http://www.bom.gov.au/fwo/IDS60801/IDS60801.95678.json